Time;durP1;ratioP1;P1;durP2;ratioP2;P2;SDS_P1;SDS_P2;PMS_P1;PMS_P2;Temp;Humidity;BMP_temperature;BMP_pressure;BME280_temperature;BME280_humidity;BME280_pressure;Samples;Min_cycle;Max_cycle;Signal;HPM_P1;HPM_P2
2021/10/16 00:00:22;;;;;;;5.03;1.38;;;9.60;99.90;;;;;;20869107;28;20067;-45
2021/10/16 00:10:24;;;;;;;5.78;1.88;;;9.50;99.90;;;;;;20881332;28;20055;-45
2021/10/16 00:20:26;;;;;;;6.88;1.25;;;9.60;99.90;;;;;;20858369;28;20068;-45
2021/10/16 00:30:27;;;;;;;2.33;1.35;;;9.60;99.90;;;;;;20863361;28;20040;-45
2021/10/16 00:40:28;;;;;;;2.60;1.10;;;9.70;99.90;;;;;;20870859;28;20053;-45
2021/10/16 00:50:29;;;;;;;6.75;1.85;;;9.70;99.90;;;;;;20838108;28;20041;-45
2021/10/16 01:00:31;;;;;;;2.58;1.00;;;9.70;99.90;;;;;;20880431;28;20137;-45
2021/10/16 01:10:32;;;;;;;3.38;1.10;;;9.70;99.90;;;;;;20901708;28;20041;-45
2021/10/16 01:20:36;;;;;;;2.85;1.60;;;9.80;99.90;;;;;;20897773;28;20048;-45
2021/10/16 01:30:37;;;;;;;5.88;1.80;;;9.80;99.90;;;;;;20896457;28;20052;-45
2021/10/16 01:40:42;;;;;;;3.58;1.42;;;9.80;99.90;;;;;;20889221;28;20401;-45
2021/10/16 01:50:43;;;;;;;1.92;1.00;;;9.80;99.90;;;;;;20890063;28;20075;-45
2021/10/16 02:00:47;;;;;;;3.80;1.05;;;9.80;99.90;;;;;;20896476;28;20048;-45
2021/10/16 02:10:48;;;;;;;2.65;0.80;;;9.80;99.90;;;;;;20901734;28;21524;-45
2021/10/16 02:20:49;;;;;;;2.13;1.17;;;9.80;99.90;;;;;;20903645;28;20049;-45
2021/10/16 02:30:50;;;;;;;3.97;0.80;;;9.70;99.90;;;;;;20890527;28;20397;-45
2021/10/16 02:40:51;;;;;;;2.60;1.17;;;9.70;99.90;;;;;;20896539;28;20048;-45
2021/10/16 02:50:52;;;;;;;1.88;0.95;;;9.70;99.90;;;;;;20889490;28;20041;-45
2021/10/16 03:00:53;;;;;;;1.75;0.82;;;9.70;99.90;;;;;;20895517;28;20063;-45
2021/10/16 03:10:54;;;;;;;5.25;1.75;;;9.70;99.90;;;;;;20899535;28;20403;-45
2021/10/16 03:20:55;;;;;;;4.05;1.20;;;9.70;99.90;;;;;;20874810;28;20049;-45
2021/10/16 03:30:56;;;;;;;6.45;1.52;;;9.80;99.90;;;;;;20906657;28;20047;-45
2021/10/16 03:40:59;;;;;;;3.97;2.08;;;9.70;99.90;;;;;;20897936;28;20044;-45
2021/10/16 03:51:00;;;;;;;5.82;2.03;;;9.80;99.90;;;;;;20902470;28;20375;-45
2021/10/16 04:01:04;;;;;;;6.45;1.40;;;9.70;99.90;;;;;;20895313;28;20048;-45
2021/10/16 04:11:07;;;;;;;12.13;1.58;;;9.60;99.90;;;;;;20818430;28;20053;-45
2021/10/16 04:21:08;;;;;;;5.30;1.35;;;9.70;99.90;;;;;;20822039;28;20048;-45
2021/10/16 04:31:09;;;;;;;3.45;1.60;;;9.70;99.90;;;;;;20834100;28;20045;-45
2021/10/16 04:41:10;;;;;;;3.40;1.17;;;9.70;99.90;;;;;;20806145;28;20044;-45
2021/10/16 04:51:12;;;;;;;3.53;0.98;;;9.70;99.90;;;;;;20815597;28;20041;-45
2021/10/16 05:01:15;;;;;;;6.75;2.05;;;9.70;99.90;;;;;;20833276;28;20049;-45
2021/10/16 05:11:16;;;;;;;3.67;1.13;;;9.80;99.90;;;;;;20894281;28;20542;-45
2021/10/16 05:21:17;;;;;;;6.93;1.77;;;9.80;99.90;;;;;;20904985;28;20048;-45
2021/10/16 05:31:18;;;;;;;3.55;1.55;;;9.80;99.90;;;;;;20896247;28;20056;-45
2021/10/16 05:41:19;;;;;;;5.40;1.20;;;9.80;99.90;;;;;;20898604;28;20052;-45
2021/10/16 05:51:20;;;;;;;3.22;1.30;;;9.80;99.90;;;;;;20893410;28;20033;-45
2021/10/16 06:01:26;;;;;;;3.53;1.20;;;9.70;99.90;;;;;;20898840;28;20127;-45
2021/10/16 06:11:27;;;;;;;4.55;1.42;;;9.70;99.90;;;;;;20857437;28;20045;-45
2021/10/16 06:21:28;;;;;;;7.05;1.20;;;9.70;99.90;;;;;;20888103;28;20539;-45
2021/10/16 06:31:29;;;;;;;2.50;0.82;;;9.70;99.90;;;;;;20882702;28;20043;-45
2021/10/16 06:41:30;;;;;;;5.10;1.08;;;9.80;99.90;;;;;;20875061;28;20052;-45
2021/10/16 06:51:42;;;;;;;2.92;0.93;;;9.80;99.90;;;;;;20884391;28;20604;-45
2021/10/16 07:01:43;;;;;;;2.90;1.27;;;9.80;99.90;;;;;;20874600;28;20059;-45
2021/10/16 07:11:44;;;;;;;4.28;0.88;;;9.90;99.90;;;;;;20853259;28;20041;-45
2021/10/16 07:21:45;;;;;;;5.55;1.45;;;9.90;99.90;;;;;;20897255;28;20052;-45
2021/10/16 07:31:46;;;;;;;9.15;1.17;;;9.90;99.90;;;;;;20901316;28;20041;-45
2021/10/16 07:41:48;;;;;;;8.18;2.00;;;10.00;99.90;;;;;;20912365;28;20044;-45
2021/10/16 07:51:49;;;;;;;4.85;1.15;;;10.10;99.90;;;;;;20907094;28;20044;-45
2021/10/16 08:01:50;;;;;;;3.65;1.15;;;10.20;99.90;;;;;;20925486;28;20045;-45
2021/10/16 08:11:51;;;;;;;6.43;1.98;;;10.30;99.90;;;;;;20919689;28;20320;-45
2021/10/16 08:21:52;;;;;;;5.57;1.58;;;10.40;99.90;;;;;;20887344;28;20045;-45
2021/10/16 08:31:54;;;;;;;3.33;1.00;;;10.50;99.90;;;;;;20924724;28;20036;-45
2021/10/16 08:41:56;;;;;;;6.00;1.00;;;10.60;99.90;;;;;;20923568;28;20048;-45
2021/10/16 08:51:57;;;;;;;3.05;1.10;;;10.80;99.90;;;;;;20921439;28;20041;-45
2021/10/16 09:02:01;;;;;;;3.35;1.05;;;11.00;99.90;;;;;;20913875;28;20052;-45
2021/10/16 09:12:11;;;;;;;9.45;1.17;;;11.30;99.90;;;;;;20921362;28;20052;-45
2021/10/16 09:22:18;;;;;;;3.72;1.00;;;11.50;99.90;;;;;;20933078;28;20063;-45
2021/10/16 09:32:23;;;;;;;5.15;1.10;;;11.60;99.90;;;;;;20902564;28;20032;-45
2021/10/16 09:42:30;;;;;;;4.18;1.10;;;11.70;99.90;;;;;;20926598;28;20073;-45
2021/10/16 09:52:34;;;;;;;4.78;1.38;;;11.80;99.90;;;;;;20912707;28;20047;-45
2021/10/16 10:02:36;;;;;;;3.10;1.45;;;11.90;99.90;;;;;;20894175;28;20049;-45
2021/10/16 10:12:38;;;;;;;8.93;1.25;;;11.90;99.90;;;;;;20799404;28;20612;-45
2021/10/16 10:22:44;;;;;;;4.15;1.20;;;12.00;99.90;;;;;;20824539;28;20049;-45
2021/10/16 10:32:47;;;;;;;12.13;1.55;;;12.10;99.90;;;;;;20816648;28;20037;-45
2021/10/16 10:42:55;;;;;;;4.38;1.35;;;12.20;99.90;;;;;;20815470;28;20422;-45
2021/10/16 10:52:56;;;;;;;4.78;1.63;;;12.40;99.90;;;;;;20817961;28;21543;-45
2021/10/16 11:02:57;;;;;;;3.42;0.77;;;12.40;99.90;;;;;;20811137;28;20045;-45
2021/10/16 11:13:13;;;;;;;6.53;0.90;;;12.50;99.90;;;;;;20892826;28;20044;-45
2021/10/16 11:23:21;;;;;;;1.40;0.80;;;12.60;99.90;;;;;;20888759;28;20049;-45
2021/10/16 11:33:26;;;;;;;8.02;1.95;;;12.60;99.90;;;;;;20891460;28;20056;-45
2021/10/16 11:43:34;;;;;;;4.82;1.02;;;12.60;99.90;;;;;;20873129;28;20037;-45
2021/10/16 11:53:36;;;;;;;2.92;1.05;;;12.80;99.90;;;;;;20852709;28;20043;-46
2021/10/16 12:03:39;;;;;;;7.50;1.02;;;15.10;99.90;;;;;;20868342;28;20165;-45
2021/10/16 12:13:43;;;;;;;3.33;1.02;;;16.40;99.90;;;;;;20865556;28;20033;-46
2021/10/16 12:23:47;;;;;;;10.82;0.85;;;15.60;99.90;;;;;;20865227;28;20057;-46
2021/10/16 12:33:54;;;;;;;5.95;0.98;;;14.80;99.90;;;;;;20859510;28;20037;-45
2021/10/16 12:43:55;;;;;;;2.57;0.77;;;15.00;99.90;;;;;;20866021;28;20041;-45
2021/10/16 12:54:00;;;;;;;4.75;1.13;;;14.90;99.90;;;;;;20830350;28;20068;-46
2021/10/16 13:04:10;;;;;;;4.43;0.93;;;15.40;99.90;;;;;;20873377;28;20063;-46
2021/10/16 13:14:31;;;;;;;6.72;0.88;;;17.00;99.90;;;;;;20856241;28;20428;-46
2021/10/16 13:24:42;;;;;;;4.72;0.75;;;17.30;99.90;;;;;;20840667;28;20559;-45
2021/10/16 13:34:53;;;;;;;2.17;0.82;;;16.70;99.90;;;;;;20874527;28;20126;-45
2021/10/16 13:44:56;;;;;;;3.03;1.15;;;16.90;99.90;;;;;;20882659;28;20406;-46
2021/10/16 13:54:58;;;;;;;3.97;1.75;;;16.50;99.90;;;;;;20876082;28;20395;-46
2021/10/16 14:05:13;;;;;;;10.48;1.83;;;17.20;99.90;;;;;;20892050;28;20062;-46
2021/10/16 14:15:14;;;;;;;9.75;2.45;;;17.70;99.90;;;;;;20901215;28;20052;-46
2021/10/16 14:25:16;;;;;;;5.43;2.08;;;17.40;99.90;;;;;;20893486;28;20064;-46
2021/10/16 14:35:18;;;;;;;7.40;1.92;;;16.90;99.90;;;;;;20893227;28;20469;-45
2021/10/16 14:45:20;;;;;;;6.03;1.90;;;15.90;99.90;;;;;;20915474;28;20048;-45
2021/10/16 14:55:32;;;;;;;5.25;1.80;;;15.20;99.90;;;;;;20881832;28;20141;-45
2021/10/16 15:05:43;;;;;;;7.50;1.83;;;14.80;99.90;;;;;;20858717;28;20127;-45
2021/10/16 15:15:54;;;;;;;6.28;1.85;;;14.40;99.90;;;;;;20893880;28;20511;-46
2021/10/16 15:26:05;;;;;;;4.82;1.48;;;13.90;99.90;;;;;;20861615;28;20128;-45
2021/10/16 15:36:06;;;;;;;5.63;1.40;;;13.80;99.90;;;;;;20902943;28;20072;-46
2021/10/16 15:46:14;;;;;;;5.82;1.48;;;13.60;99.90;;;;;;20878427;28;20645;-45
2021/10/16 15:56:15;;;;;;;3.78;1.23;;;13.50;99.90;;;;;;20899519;28;20108;-46
2021/10/16 16:06:16;;;;;;;5.75;1.65;;;13.30;99.90;;;;;;20860508;28;20056;-45
2021/10/16 16:16:18;;;;;;;6.25;2.10;;;13.20;99.90;;;;;;20847929;28;20033;-45
2021/10/16 16:26:19;;;;;;;5.30;1.83;;;13.10;99.90;;;;;;20846119;28;20045;-45
2021/10/16 16:36:20;;;;;;;5.40;1.40;;;13.10;99.90;;;;;;20838141;28;20041;-45
2021/10/16 16:46:21;;;;;;;6.18;2.15;;;13.00;99.90;;;;;;20866444;28;20052;-45
2021/10/16 16:56:22;;;;;;;7.50;2.80;;;12.90;99.90;;;;;;20861391;28;20033;-46
2021/10/16 17:06:23;;;;;;;5.03;2.13;;;12.80;99.90;;;;;;20872331;28;20506;-45
2021/10/16 17:16:30;;;;;;;6.28;2.10;;;12.70;99.90;;;;;;20873927;28;20047;-46
2021/10/16 17:26:31;;;;;;;4.97;2.05;;;12.70;99.90;;;;;;20871695;28;20041;-46
2021/10/16 17:36:34;;;;;;;7.30;1.77;;;12.70;99.90;;;;;;20887527;28;20091;-45
2021/10/16 17:46:35;;;;;;;3.75;1.80;;;12.60;99.90;;;;;;20882926;28;20049;-46
2021/10/16 17:56:37;;;;;;;6.22;2.10;;;12.60;99.90;;;;;;20869521;28;20033;-45
2021/10/16 18:06:38;;;;;;;10.52;2.85;;;12.50;99.90;;;;;;20894263;28;20691;-45
2021/10/16 18:16:40;;;;;;;4.45;2.00;;;12.50;99.90;;;;;;20860624;28;20049;-45
2021/10/16 18:26:41;;;;;;;9.98;2.58;;;12.40;99.90;;;;;;20869669;28;20075;-45
2021/10/16 18:36:42;;;;;;;4.82;2.17;;;12.30;99.90;;;;;;20862208;28;20052;-45
2021/10/16 18:46:43;;;;;;;5.75;2.70;;;12.20;99.90;;;;;;20872166;28;20040;-45
2021/10/16 18:56:45;;;;;;;7.15;2.60;;;12.20;99.90;;;;;;20861076;28;20055;-45
2021/10/16 19:06:48;;;;;;;4.22;2.15;;;12.20;99.90;;;;;;20853538;28;20041;-45
2021/10/16 19:16:49;;;;;;;6.82;1.90;;;12.10;99.90;;;;;;20901173;28;20457;-45
2021/10/16 19:26:51;;;;;;;4.38;1.80;;;12.10;99.90;;;;;;20858657;28;20061;-45
2021/10/16 19:36:52;;;;;;;6.53;2.22;;;12.10;99.90;;;;;;20849847;28;20061;-45
2021/10/16 19:46:54;;;;;;;5.03;1.88;;;12.00;99.90;;;;;;20871698;28;20602;-45
2021/10/16 19:56:55;;;;;;;3.83;1.85;;;12.00;99.90;;;;;;20885061;28;20047;-45
2021/10/16 20:06:57;;;;;;;4.35;1.60;;;12.00;99.90;;;;;;20908996;28;20091;-45
2021/10/16 20:16:59;;;;;;;3.60;1.90;;;11.80;99.90;;;;;;20906769;28;20044;-45
2021/10/16 20:27:04;;;;;;;4.13;1.48;;;11.70;99.90;;;;;;20898356;28;20045;-45
2021/10/16 20:37:06;;;;;;;3.95;1.63;;;11.70;99.90;;;;;;20902742;28;20379;-45
2021/10/16 20:47:07;;;;;;;4.88;1.50;;;11.50;99.90;;;;;;20900703;28;20051;-45
2021/10/16 20:57:08;;;;;;;4.03;1.50;;;11.50;99.90;;;;;;20894584;28;20052;-45
2021/10/16 21:07:11;;;;;;;5.68;1.90;;;11.50;99.90;;;;;;20859670;28;20052;-45
2021/10/16 21:17:12;;;;;;;6.68;2.03;;;11.30;99.90;;;;;;20887958;28;20040;-45
2021/10/16 21:27:13;;;;;;;4.18;1.55;;;11.40;99.90;;;;;;20893343;28;20494;-45
2021/10/16 21:37:14;;;;;;;7.63;1.73;;;11.20;99.90;;;;;;20892535;28;20044;-45
2021/10/16 21:47:17;;;;;;;4.05;1.73;;;11.20;99.90;;;;;;20852429;28;20040;-45
2021/10/16 21:57:18;;;;;;;5.35;1.83;;;11.20;99.90;;;;;;20907838;28;20036;-45
2021/10/16 22:07:20;;;;;;;5.78;1.70;;;11.10;99.90;;;;;;20875702;28;20052;-45
2021/10/16 22:17:21;;;;;;;10.70;2.67;;;11.20;99.90;;;;;;20860937;28;20037;-45
2021/10/16 22:27:22;;;;;;;4.88;2.13;;;11.10;99.90;;;;;;20900711;28;20052;-45
2021/10/16 22:37:24;;;;;;;6.70;1.90;;;11.10;99.90;;;;;;20862734;28;20029;-46
2021/10/16 22:47:26;;;;;;;6.18;2.63;;;11.00;99.90;;;;;;20890750;28;20046;-45
2021/10/16 22:57:36;;;;;;;3.80;1.88;;;10.90;99.90;;;;;;20908018;28;20481;-45
2021/10/16 23:07:39;;;;;;;5.13;1.90;;;10.90;99.90;;;;;;20918276;28;20043;-45
2021/10/16 23:17:41;;;;;;;5.03;1.95;;;10.90;99.90;;;;;;20926851;28;20032;-45
2021/10/16 23:27:43;;;;;;;6.25;2.42;;;10.80;99.90;;;;;;20936320;28;20051;-45
2021/10/16 23:37:44;;;;;;;6.65;2.15;;;10.90;99.90;;;;;;20926945;28;20041;-45
2021/10/16 23:47:47;;;;;;;7.68;2.17;;;10.80;99.90;;;;;;20930290;28;20177;-45
2021/10/16 23:57:49;;;;;;;4.70;1.95;;;10.70;99.90;;;;;;20931210;28;21539;-45
